Red Valley, Arizona
Current Conditions -  °F | °C
As of 4:53 AM on Thursday 27 Nov 2014 (Local Time) from KCEZ Reporting Station
Clear Clear  
Wind Chill: 19°   Ceiling: Unl
Heat Index: 19°   Visibility: 10mi
Dew Point: 16°   Wind: 3mph
Humidity: 88%   Direction: 60°ENE
Pressure: 30.47"   Gusts: NA
Location:  36.91°N, 109.1°W
Report Text: KCEZ 271153Z AUTO 06003KT 10SM CLR M07/M09 A3047 RMK AO2 SLP323 T10721089 11033 21072 58001
Loading
Personal Weather Stations






























Interactive Weather Map New forecast layout! Learn more

10-Day Weather Forecast

Advertisements
Track Severe Weather on mobile